createdAt,value
2022-08-03T00:00:24.328Z,19.82
2022-08-03T00:02:51.227Z,19.92
2022-08-03T00:05:17.914Z,19.78
2022-08-03T00:07:44.574Z,19.83
2022-08-03T00:10:12.669Z,19.93
2022-08-03T00:12:39.261Z,19.93
2022-08-03T00:15:08.349Z,19.82
2022-08-03T00:17:53.655Z,19.87
2022-08-03T00:20:23.990Z,19.70
2022-08-03T00:22:51.593Z,19.69
2022-08-03T00:25:18.736Z,19.60
2022-08-03T00:27:45.669Z,19.46
2022-08-03T00:30:15.265Z,19.32
2022-08-03T00:32:45.092Z,19.41
2022-08-03T00:35:21.284Z,19.54
2022-08-03T00:37:59.263Z,19.24
2022-08-03T00:40:26.146Z,19.35
2022-08-03T00:42:55.070Z,19.38
2022-08-03T00:45:23.764Z,19.35
2022-08-03T00:47:51.146Z,19.32
2022-08-03T00:50:19.396Z,19.27
2022-08-03T00:52:47.198Z,19.30
2022-08-03T00:55:15.552Z,19.31
2022-08-03T00:57:43.295Z,19.26
2022-08-03T01:00:11.996Z,19.14
2022-08-03T01:02:39.875Z,19.18
2022-08-03T01:05:07.644Z,18.98
2022-08-03T01:08:02.040Z,18.94
2022-08-03T01:10:47.341Z,18.76
2022-08-03T01:14:00.230Z,18.79
2022-08-03T01:16:37.689Z,18.80
2022-08-03T01:19:29.474Z,18.68
2022-08-03T01:22:18.340Z,18.51
2022-08-03T01:24:53.788Z,18.65
2022-08-03T01:27:36.214Z,18.54
2022-08-03T01:30:10.294Z,18.59
2022-08-03T01:32:58.411Z,18.61
2022-08-03T01:35:39.313Z,18.68
2022-08-03T01:38:15.257Z,18.72
2022-08-03T01:40:44.661Z,18.68
2022-08-03T01:43:59.008Z,18.61
2022-08-03T01:46:05.458Z,18.57
2022-08-03T01:48:33.315Z,18.43
2022-08-03T01:51:00.988Z,18.51
2022-08-03T01:53:29.006Z,18.46
2022-08-03T01:55:57.523Z,18.26
2022-08-03T01:58:26.987Z,18.39
2022-08-03T02:01:01.123Z,18.45
2022-08-03T02:03:29.943Z,18.27
2022-08-03T02:07:00.761Z,18.29
2022-08-03T02:08:46.969Z,18.32
2022-08-03T02:11:13.808Z,18.34
2022-08-03T02:13:40.868Z,18.14
2022-08-03T02:16:09.496Z,18.09
2022-08-03T02:18:39.672Z,18.10
2022-08-03T02:21:11.258Z,18.07
2022-08-03T02:23:38.863Z,18.11
2022-08-03T02:26:09.413Z,18.08
2022-08-03T02:28:40.403Z,18.14
2022-08-03T02:31:13.853Z,18.10
2022-08-03T02:33:44.271Z,18.06
2022-08-03T02:36:13.397Z,17.94
2022-08-03T02:38:42.931Z,17.94
2022-08-03T02:41:17.145Z,17.97
2022-08-03T02:44:05.410Z,17.94
2022-08-03T02:46:38.682Z,17.76
2022-08-03T02:49:35.051Z,17.72
2022-08-03T02:51:55.418Z,17.85
2022-08-03T02:54:24.910Z,17.77
2022-08-03T02:56:54.158Z,17.57
2022-08-03T02:59:21.469Z,17.71
2022-08-03T03:01:49.120Z,17.74
2022-08-03T03:04:16.510Z,17.67
2022-08-03T03:06:44.330Z,17.73
2022-08-03T03:09:14.773Z,17.57
2022-08-03T03:11:42.645Z,17.64
2022-08-03T03:14:11.015Z,17.64
2022-08-03T03:16:39.488Z,17.63
2022-08-03T03:19:08.648Z,17.57
2022-08-03T03:21:36.713Z,17.61
2022-08-03T03:24:05.009Z,17.55
2022-08-03T03:26:32.148Z,17.48
2022-08-03T03:28:59.359Z,17.41
2022-08-03T03:31:26.042Z,17.44
2022-08-03T03:33:52.824Z,17.35
2022-08-03T03:36:19.669Z,17.38
2022-08-03T03:38:46.441Z,17.35
2022-08-03T03:41:13.365Z,17.37
2022-08-03T03:43:41.536Z,17.32
2022-08-03T03:46:08.317Z,17.29
2022-08-03T03:48:35.112Z,17.20
2022-08-03T03:51:02.686Z,17.27
2022-08-03T03:53:29.335Z,17.18
2022-08-03T03:55:59.418Z,17.19
2022-08-03T03:58:30.603Z,17.11
2022-08-03T04:00:57.276Z,17.23
2022-08-03T04:03:24.037Z,17.23
2022-08-03T04:06:09.701Z,17.17
2022-08-03T04:08:55.053Z,16.93
2022-08-03T04:11:30.407Z,17.18
2022-08-03T04:14:24.425Z,17.14
2022-08-03T04:16:56.575Z,17.01
2022-08-03T04:19:45.269Z,17.23
2022-08-03T04:22:17.910Z,17.25
2022-08-03T04:25:01.359Z,17.26
2022-08-03T04:27:33.237Z,17.23
2022-08-03T04:30:03.042Z,17.19
2022-08-03T04:32:33.357Z,17.28
2022-08-03T04:35:00.753Z,17.28
2022-08-03T04:37:37.707Z,17.14
2022-08-03T04:40:09.285Z,17.40
2022-08-03T04:42:37.979Z,17.30
2022-08-03T04:45:06.162Z,17.38
2022-08-03T04:47:34.267Z,17.63
2022-08-03T04:50:02.720Z,18.14
2022-08-03T04:52:29.635Z,19.42
2022-08-03T04:54:56.902Z,20.20
2022-08-03T04:57:23.726Z,20.56
2022-08-03T05:00:01.700Z,20.82
2022-08-03T05:02:30.492Z,21.34
2022-08-03T05:04:57.401Z,21.66
2022-08-03T05:07:25.147Z,21.62
2022-08-03T05:10:01.405Z,21.33
2022-08-03T05:12:32.847Z,21.83
2022-08-03T05:15:00.408Z,21.87
2022-08-03T05:17:27.332Z,22.68
2022-08-03T05:19:54.486Z,22.79
2022-08-03T05:22:21.692Z,23.40
2022-08-03T05:24:48.419Z,23.70
2022-08-03T05:27:19.460Z,24.29
2022-08-03T05:29:47.269Z,24.73
2022-08-03T05:32:14.124Z,25.00
2022-08-03T05:34:40.837Z,24.99
2022-08-03T05:37:07.623Z,24.94
2022-08-03T05:39:35.371Z,25.11
2022-08-03T05:42:04.275Z,25.24
2022-08-03T05:44:31.807Z,25.29
2022-08-03T05:46:59.588Z,25.54
2022-08-03T05:49:26.372Z,25.73
2022-08-03T05:52:00.588Z,25.88
2022-08-03T05:54:56.064Z,25.94
2022-08-03T05:57:25.327Z,26.59
2022-08-03T05:59:54.675Z,26.82
2022-08-03T06:02:28.486Z,27.34
2022-08-03T06:04:55.097Z,27.40
2022-08-03T06:07:21.725Z,27.56
2022-08-03T06:10:33.186Z,27.65
2022-08-03T06:12:38.972Z,28.09
2022-08-03T06:15:06.011Z,28.48
2022-08-03T06:17:37.114Z,28.15
2022-08-03T06:20:05.617Z,28.30
2022-08-03T06:22:32.227Z,28.66
2022-08-03T06:24:59.051Z,28.79
2022-08-03T06:27:37.170Z,28.59
2022-08-03T06:30:05.145Z,28.79
2022-08-03T06:32:31.820Z,28.63
2022-08-03T06:34:58.462Z,28.74
2022-08-03T06:37:25.037Z,28.64
2022-08-03T06:39:51.629Z,29.03
2022-08-03T06:42:18.524Z,29.21
2022-08-03T06:44:47.304Z,29.23
2022-08-03T06:47:13.878Z,29.68
2022-08-03T06:49:41.687Z,29.85
2022-08-03T06:52:08.336Z,29.59
2022-08-03T06:54:35.974Z,29.91
2022-08-03T06:57:03.628Z,30.48
2022-08-03T07:00:08.852Z,30.49
2022-08-03T07:02:19.283Z,30.39
2022-08-03T07:04:48.990Z,30.75
2022-08-03T07:07:15.804Z,30.44
2022-08-03T07:09:42.394Z,30.74
2022-08-03T07:12:24.071Z,30.64
2022-08-03T07:14:50.707Z,30.98
2022-08-03T07:17:17.285Z,31.22
2022-08-03T07:19:43.971Z,31.00
2022-08-03T07:22:11.559Z,31.22
2022-08-03T07:24:38.175Z,31.35
2022-08-03T07:27:04.884Z,31.58
2022-08-03T07:29:31.474Z,30.87
2022-08-03T07:32:01.611Z,31.20
2022-08-03T07:34:28.232Z,31.34
2022-08-03T07:36:54.799Z,31.47
2022-08-03T07:39:21.393Z,31.33
2022-08-03T07:41:50.259Z,31.39
2022-08-03T07:44:17.735Z,31.55
2022-08-03T07:46:44.541Z,31.72
2022-08-03T07:49:11.262Z,31.85
2022-08-03T07:51:38.290Z,31.73
2022-08-03T07:54:05.229Z,32.19
2022-08-03T07:56:31.921Z,32.57
2022-08-03T07:58:59.812Z,32.50
2022-08-03T08:01:26.727Z,32.77
2022-08-03T08:03:53.832Z,32.19
2022-08-03T08:06:21.676Z,32.14
2022-08-03T08:08:48.351Z,32.33
2022-08-03T08:11:15.155Z,32.66
2022-08-03T08:13:41.822Z,32.90
2022-08-03T08:16:08.510Z,32.78
2022-08-03T08:18:35.259Z,32.55
2022-08-03T08:21:03.395Z,32.77
2022-08-03T08:23:42.200Z,32.64
2022-08-03T08:26:10.574Z,32.86
2022-08-03T08:28:37.321Z,33.16
2022-08-03T08:31:04.078Z,33.50
2022-08-03T08:33:54.266Z,33.50
2022-08-03T08:36:17.772Z,33.34
2022-08-03T08:38:45.113Z,33.19
2022-08-03T08:41:13.648Z,33.25
2022-08-03T08:43:41.156Z,33.84
2022-08-03T08:46:11.912Z,33.41
2022-08-03T08:48:42.138Z,33.08
2022-08-03T08:51:09.862Z,33.34
2022-08-03T08:53:38.383Z,33.45
2022-08-03T08:56:07.810Z,33.66
2022-08-03T08:58:42.028Z,33.37
2022-08-03T09:01:08.800Z,33.31
2022-08-03T09:03:35.878Z,33.77
2022-08-03T09:06:03.653Z,33.96
2022-08-03T09:08:32.318Z,34.02
2022-08-03T09:10:59.529Z,33.85
2022-08-03T09:13:26.401Z,34.02
2022-08-03T09:16:13.960Z,33.55
2022-08-03T09:18:42.318Z,34.04
2022-08-03T09:21:31.814Z,33.61
2022-08-03T09:24:02.696Z,33.26
2022-08-03T09:26:31.294Z,33.43
2022-08-03T09:29:16.811Z,34.15
2022-08-03T09:31:46.115Z,34.28
2022-08-03T09:34:14.958Z,33.89
2022-08-03T09:36:46.507Z,34.51
2022-08-03T09:39:14.792Z,34.62
2022-08-03T09:41:44.347Z,34.52
2022-08-03T09:44:16.166Z,34.50
2022-08-03T09:46:56.786Z,34.15
2022-08-03T09:49:24.551Z,34.25
2022-08-03T09:52:29.994Z,34.64
2022-08-03T09:54:38.460Z,34.95
2022-08-03T09:57:05.228Z,34.99
2022-08-03T09:59:33.534Z,34.70
2022-08-03T10:02:00.951Z,34.81
2022-08-03T10:04:28.167Z,34.62
2022-08-03T10:07:08.402Z,34.26
2022-08-03T10:09:36.412Z,34.48
2022-08-03T10:12:14.027Z,34.84
2022-08-03T10:14:42.396Z,34.85
2022-08-03T10:17:12.330Z,34.57
2022-08-03T10:19:39.847Z,34.69
2022-08-03T10:22:19.469Z,34.56
2022-08-03T10:25:11.602Z,34.52
2022-08-03T10:27:42.659Z,34.48
2022-08-03T10:30:11.267Z,34.82
2022-08-03T10:32:43.118Z,34.67
2022-08-03T10:35:20.024Z,34.92
2022-08-03T10:38:12.935Z,35.23
2022-08-03T10:40:48.549Z,35.48
2022-08-03T10:43:28.635Z,35.43
2022-08-03T10:45:56.798Z,35.11
2022-08-03T10:48:24.103Z,35.22
2022-08-03T10:50:51.204Z,35.32
2022-08-03T10:53:35.028Z,34.92
2022-08-03T10:56:27.431Z,34.99
2022-08-03T10:59:06.871Z,35.18
2022-08-03T11:01:58.990Z,34.77
2022-08-03T11:04:29.781Z,34.22
2022-08-03T11:07:22.881Z,34.22
2022-08-03T11:09:54.819Z,34.49
2022-08-03T11:12:32.846Z,34.71
2022-08-03T11:15:05.777Z,34.72
2022-08-03T11:17:45.853Z,34.49
2022-08-03T11:21:07.142Z,34.79
2022-08-03T11:24:05.018Z,34.49
2022-08-03T11:26:34.547Z,34.97
2022-08-03T11:29:27.483Z,35.26
2022-08-03T11:31:54.161Z,34.93
2022-08-03T11:34:20.955Z,35.17
2022-08-03T11:37:20.676Z,35.42
2022-08-03T11:39:49.556Z,35.43
2022-08-03T11:42:22.189Z,35.16
2022-08-03T11:44:53.744Z,34.88
2022-08-03T11:47:22.298Z,34.80
2022-08-03T11:49:49.949Z,34.77
2022-08-03T11:52:17.993Z,34.80
2022-08-03T11:54:44.839Z,34.54
2022-08-03T11:57:12.058Z,34.72
2022-08-03T11:59:39.000Z,34.86
2022-08-03T12:02:13.060Z,34.39
2022-08-03T12:04:53.394Z,34.57
2022-08-03T12:07:24.490Z,34.88
2022-08-03T12:10:09.233Z,34.83
2022-08-03T12:12:36.439Z,34.77
2022-08-03T12:15:04.453Z,34.87
2022-08-03T12:17:39.588Z,34.81
2022-08-03T12:20:08.473Z,35.04
2022-08-03T12:22:37.484Z,34.87
2022-08-03T12:25:08.647Z,35.22
2022-08-03T12:27:36.678Z,34.99
2022-08-03T12:30:04.230Z,34.95
2022-08-03T12:32:31.400Z,34.95
2022-08-03T12:35:04.512Z,34.92
2022-08-03T12:37:31.809Z,34.65
2022-08-03T12:40:07.762Z,34.62
2022-08-03T12:42:38.906Z,35.15
2022-08-03T12:45:26.496Z,35.68
2022-08-03T12:48:01.083Z,35.58
2022-08-03T12:50:32.997Z,35.79
2022-08-03T12:53:01.527Z,35.44
2022-08-03T12:55:57.948Z,35.33
2022-08-03T12:58:34.416Z,35.79
2022-08-03T13:01:05.161Z,35.76
2022-08-03T13:03:50.039Z,35.77
2022-08-03T13:06:24.812Z,35.94
2022-08-03T13:09:12.066Z,35.85
2022-08-03T13:11:55.715Z,35.77
2022-08-03T13:14:26.397Z,35.84
2022-08-03T13:16:53.814Z,35.52
2022-08-03T13:19:20.554Z,35.87
2022-08-03T13:22:01.811Z,35.96
2022-08-03T13:24:32.282Z,35.78
2022-08-03T13:26:59.934Z,36.04
2022-08-03T13:29:26.792Z,36.00
2022-08-03T13:31:53.504Z,35.75
2022-08-03T13:34:23.427Z,35.58
2022-08-03T13:39:57.494Z,35.83
2022-08-03T13:42:25.720Z,35.80
2022-08-03T13:44:52.462Z,35.84
2022-08-03T13:47:19.790Z,35.82
2022-08-03T13:50:00.136Z,35.72
2022-08-03T13:52:33.271Z,36.06
2022-08-03T13:55:00.789Z,35.99
2022-08-03T13:58:03.732Z,35.70
2022-08-03T14:00:27.946Z,35.38
2022-08-03T14:03:14.820Z,35.70
2022-08-03T14:05:43.272Z,35.90
2022-08-03T14:08:11.477Z,35.80
2022-08-03T14:10:40.803Z,35.65
2022-08-03T14:13:07.969Z,35.63
2022-08-03T14:15:37.514Z,35.54
2022-08-03T14:18:05.858Z,35.58
2022-08-03T14:20:37.338Z,35.60
2022-08-03T14:23:06.963Z,35.89
2022-08-03T14:25:49.989Z,35.95
2022-08-03T14:28:17.858Z,35.56
2022-08-03T14:30:44.474Z,35.70
2022-08-03T14:33:11.042Z,35.73
2022-08-03T14:35:37.702Z,35.81
2022-08-03T14:38:04.429Z,35.94
2022-08-03T14:40:31.015Z,35.72
2022-08-03T14:42:57.648Z,35.75
2022-08-03T14:45:24.727Z,35.74
2022-08-03T14:50:28.751Z,35.93
2022-08-03T14:50:43.261Z,35.73
2022-08-03T14:53:14.077Z,35.84
2022-08-03T14:55:50.075Z,35.92
2022-08-03T14:58:20.770Z,35.95
2022-08-03T15:00:48.776Z,35.78
2022-08-03T15:03:17.234Z,35.60
2022-08-03T15:05:44.882Z,35.93
2022-08-03T15:08:11.516Z,35.75
2022-08-03T15:10:40.586Z,35.70
2022-08-03T15:13:14.929Z,35.43
2022-08-03T15:15:41.789Z,35.78
2022-08-03T15:18:09.074Z,35.70
2022-08-03T15:20:44.577Z,35.59
2022-08-03T15:23:13.149Z,35.56
2022-08-03T15:26:28.462Z,35.48
2022-08-03T15:28:26.655Z,35.76
2022-08-03T15:30:53.336Z,35.64
2022-08-03T15:33:20.222Z,35.24
2022-08-03T15:35:47.742Z,35.29
2022-08-03T15:38:15.584Z,35.06
2022-08-03T15:40:42.225Z,34.87
2022-08-03T15:43:09.140Z,35.17
2022-08-03T15:45:36.859Z,35.01
2022-08-03T15:48:05.712Z,35.04
2022-08-03T15:50:32.383Z,35.05
2022-08-03T15:52:59.406Z,35.18
2022-08-03T15:55:26.166Z,35.38
2022-08-03T15:59:03.616Z,35.30
2022-08-03T16:00:41.764Z,35.32
2022-08-03T16:03:08.706Z,35.28
2022-08-03T16:05:35.542Z,35.25
2022-08-03T16:08:04.266Z,35.18
2022-08-03T16:10:32.452Z,35.30
2022-08-03T16:13:00.086Z,35.34
2022-08-03T16:15:31.149Z,34.95
2022-08-03T16:17:57.827Z,35.03
2022-08-03T16:20:30.818Z,35.00
2022-08-03T16:23:10.899Z,34.97
2022-08-03T16:25:42.692Z,35.01
2022-08-03T16:28:14.591Z,35.11
2022-08-03T16:30:43.858Z,35.07
2022-08-03T16:33:11.876Z,34.93
2022-08-03T16:35:44.868Z,35.29
2022-08-03T16:38:15.205Z,34.94
2022-08-03T16:40:45.841Z,34.82
2022-08-03T16:43:17.947Z,34.76
2022-08-03T16:45:46.406Z,34.52
2022-08-03T16:48:13.296Z,34.50
2022-08-03T16:50:40.027Z,34.52
2022-08-03T16:53:09.216Z,34.86
2022-08-03T16:55:43.408Z,34.65
2022-08-03T16:58:19.628Z,34.42
2022-08-03T17:01:20.895Z,34.49
2022-08-03T17:04:01.458Z,34.37
2022-08-03T17:06:33.912Z,34.44
2022-08-03T17:09:09.691Z,34.52
2022-08-03T17:11:47.146Z,34.45
2022-08-03T17:14:28.245Z,34.23
2022-08-03T17:17:03.768Z,34.18
2022-08-03T17:19:32.376Z,34.08
2022-08-03T17:22:16.011Z,33.97
2022-08-03T17:25:07.441Z,33.84
2022-08-03T17:28:48.765Z,33.89
2022-08-03T17:30:25.172Z,33.77
2022-08-03T17:32:52.449Z,33.75
2022-08-03T17:35:34.489Z,33.59
2022-08-03T17:38:06.640Z,33.49
2022-08-03T17:40:35.895Z,33.36
2022-08-03T17:43:44.351Z,33.20
2022-08-03T17:45:52.301Z,32.99
2022-08-03T17:48:21.175Z,32.95
2022-08-03T17:50:59.884Z,32.70
2022-08-03T17:53:34.767Z,32.60
2022-08-03T17:56:42.649Z,32.39
2022-08-03T17:59:51.521Z,32.30
2022-08-03T18:03:01.604Z,32.04
2022-08-03T18:06:11.635Z,32.06
2022-08-03T18:08:25.749Z,32.05
2022-08-03T18:11:03.511Z,32.08
2022-08-03T18:13:57.757Z,31.95
2022-08-03T18:16:38.351Z,31.79
2022-08-03T18:19:09.623Z,31.69
2022-08-03T18:22:03.250Z,31.56
2022-08-03T18:24:30.898Z,31.32
2022-08-03T18:26:59.366Z,31.17
2022-08-03T18:29:27.366Z,30.94
2022-08-03T18:32:03.088Z,30.76
2022-08-03T18:34:34.126Z,30.66
2022-08-03T18:37:04.264Z,30.63
2022-08-03T18:39:49.486Z,30.43
2022-08-03T18:42:19.715Z,30.33
2022-08-03T18:48:12.247Z,30.01
2022-08-03T18:50:53.414Z,29.92
2022-08-03T18:54:03.560Z,29.74
2022-08-03T18:56:44.987Z,29.69
2022-08-03T18:59:30.013Z,29.52
2022-08-03T19:02:05.439Z,29.51
2022-08-03T19:04:34.165Z,29.39
2022-08-03T19:07:09.202Z,29.25
2022-08-03T19:09:42.486Z,29.14
2022-08-03T19:12:31.057Z,29.09
2022-08-03T19:15:10.608Z,29.00
2022-08-03T19:17:43.503Z,28.93
2022-08-03T19:20:25.547Z,28.79
2022-08-03T19:22:53.428Z,28.64
2022-08-03T19:25:20.544Z,28.45
2022-08-03T19:28:03.771Z,28.38
2022-08-03T19:30:46.400Z,28.41
2022-08-03T19:33:20.505Z,28.26
2022-08-03T19:35:55.274Z,28.29
2022-08-03T19:38:28.641Z,28.26
2022-08-03T19:41:02.217Z,28.08
2022-08-03T19:43:49.298Z,27.78
2022-08-03T19:46:22.574Z,27.77
2022-08-03T19:49:03.260Z,27.68
2022-08-03T19:52:00.940Z,27.86
2022-08-03T19:54:29.765Z,27.58
2022-08-03T19:57:01.880Z,27.42
2022-08-03T19:59:30.934Z,27.54
2022-08-03T20:01:57.556Z,27.26
2022-08-03T20:04:24.433Z,27.38
2022-08-03T20:06:52.275Z,27.24
2022-08-03T20:09:20.592Z,27.21
2022-08-03T20:11:47.879Z,27.16
2022-08-03T20:14:20.912Z,27.08
2022-08-03T20:16:53.590Z,26.93
2022-08-03T20:19:20.291Z,26.59
2022-08-03T20:21:48.390Z,26.51
2022-08-03T20:24:36.805Z,26.39
2022-08-03T20:27:08.078Z,26.35
2022-08-03T20:30:05.255Z,26.27
2022-08-03T20:32:27.950Z,26.08
2022-08-03T20:34:54.547Z,26.01
2022-08-03T20:37:22.148Z,25.90
2022-08-03T20:39:49.556Z,25.93
2022-08-03T20:42:21.514Z,25.94
2022-08-03T20:44:58.942Z,25.87
2022-08-03T20:47:36.551Z,25.91
2022-08-03T20:50:09.594Z,25.70
2022-08-03T20:52:43.930Z,25.49
2022-08-03T20:55:20.371Z,25.71
2022-08-03T20:58:05.565Z,25.52
2022-08-03T21:00:32.771Z,25.38
2022-08-03T21:02:59.497Z,25.23
2022-08-03T21:05:47.717Z,25.16
2022-08-03T21:08:16.120Z,24.88
2022-08-03T21:10:42.998Z,24.74
2022-08-03T21:13:04.819Z,30.17
2022-08-03T21:13:25.103Z,24.86
2022-08-03T21:16:14.309Z,24.88
2022-08-03T21:19:02.759Z,24.53
2022-08-03T21:21:31.963Z,24.49
2022-08-03T21:24:00.098Z,24.68
2022-08-03T21:26:27.618Z,24.60
2022-08-03T21:28:55.899Z,24.60
2022-08-03T21:31:25.428Z,24.31
2022-08-03T21:33:58.227Z,24.17
2022-08-03T21:36:28.100Z,24.09
2022-08-03T21:38:57.418Z,24.11
2022-08-03T21:41:29.224Z,24.12
2022-08-03T21:43:56.418Z,24.19
2022-08-03T21:46:23.733Z,24.11
2022-08-03T21:50:04.047Z,24.09
2022-08-03T21:51:49.633Z,24.04
2022-08-03T21:54:17.927Z,24.06
2022-08-03T21:56:47.487Z,23.96
2022-08-03T21:59:17.585Z,23.92
2022-08-03T22:01:49.124Z,23.81
2022-08-03T22:04:50.283Z,23.84
2022-08-03T22:07:10.396Z,23.88
2022-08-03T22:09:37.241Z,23.78
2022-08-03T22:12:04.563Z,23.74
2022-08-03T22:14:34.302Z,23.63
2022-08-03T22:17:06.278Z,23.55
2022-08-03T22:19:33.868Z,23.51
2022-08-03T22:22:04.448Z,23.56
2022-08-03T22:24:32.803Z,23.42
2022-08-03T22:27:20.770Z,23.36
2022-08-03T22:29:51.072Z,23.29
2022-08-03T22:32:17.808Z,23.13
2022-08-03T22:34:47.142Z,23.22
2022-08-03T22:37:16.144Z,23.09
2022-08-03T22:39:44.526Z,23.14
2022-08-03T22:42:11.350Z,23.03
2022-08-03T22:44:38.260Z,23.00
2022-08-03T22:47:05.889Z,22.96
2022-08-03T22:49:35.549Z,22.87
2022-08-03T22:52:02.534Z,22.84
2022-08-03T22:54:31.674Z,22.86
2022-08-03T22:56:58.882Z,22.78
2022-08-03T22:59:40.226Z,22.61
2022-08-03T23:02:21.350Z,22.55
2022-08-03T23:04:55.096Z,22.41
2022-08-03T23:07:29.037Z,22.28
2022-08-03T23:09:56.728Z,22.46
2022-08-03T23:12:23.656Z,22.10
2022-08-03T23:14:56.307Z,22.26
2022-08-03T23:17:25.738Z,22.13
2022-08-03T23:19:53.929Z,22.21
2022-08-03T23:22:29.928Z,21.92
2022-08-03T23:24:59.187Z,22.00
2022-08-03T23:27:28.116Z,22.05
2022-08-03T23:29:57.413Z,22.06
2022-08-03T23:32:29.140Z,22.04
2022-08-03T23:35:17.058Z,22.00
2022-08-03T23:38:04.373Z,21.90
2022-08-03T23:40:33.559Z,21.69
2022-08-03T23:43:01.926Z,21.83
2022-08-03T23:45:30.504Z,21.83
2022-08-03T23:47:57.153Z,21.94
2022-08-03T23:50:24.544Z,21.96
2022-08-03T23:53:11.262Z,21.91
2022-08-03T23:55:47.223Z,21.87
2022-08-03T23:58:51.273Z,21.57
